MSC Vega — D5BE4 — position and weather

sailwx.info

Track history (hours):
 
Tides and Currents Weather Stations Pressure Air Temp Water Temp Dewpoint Dewpoint Depression Visibility Wind Speed Wind Dir Waves Ship Positions

MSC Vega

Last reported at 2015-Apr-19 15:33 UTC. Time now 2015-Apr-19 15:38 UTC.
Position N 49°40' W 000°30'.

Length 366 m; draft 10.9 m.

Type: Ship (hazmat cat A). MMSI: 636015506.

Date/timePositionNaut miles runAvg speedWind from/ knotsBaromVisibWave heightAir tempDewpointWater temp
2015-Apr-19 15:33N 49°40' W 000°30'1515.0
2015-Apr-19 14:34N 49°46' W 000°51'3114.6
2015-Apr-19 12:26N 49°54' W 001°37'1514.0
2015-Apr-19 11:20N 49°54' W 002°01'71618.8
2015-Apr-17 21:20N 39°22' W 009°52'1519.8
2015-Apr-17 20:33N 39°06' W 009°52'2020.0
2015-Apr-17 19:33N 38°46' W 009°52'1919.3
2015-Apr-17 18:33N 38°29' W 009°41'1919.7
2015-Apr-17 17:34N 38°13' W 009°27'1919.2
2015-Apr-17 16:33N 38°00' W 009°08'1514.6
2015-Apr-17 15:33N 37°55' W 008°50'1 0.8
2015-Apr-17 14:33N 37°56' W 008°51'0 0.0
2015-Apr-17 13:30N 37°56' W 008°51'0 0.0
2015-Apr-17 12:33N 37°56' W 008°51'0 0.0
2015-Apr-17 11:33N 37°56' W 008°51'0 0.0
2015-Apr-17 10:33N 37°56' W 008°51'0 0.0
2015-Apr-17 09:30N 37°56' W 008°51'0 0.0
2015-Apr-17 08:33N 37°56' W 008°51'0 0.0
2015-Apr-17 07:33N 37°56' W 008°51'0 0.0
2015-Apr-17 06:33N 37°56' W 008°51'0 0.0
2015-Apr-17 05:30N 37°56' W 008°51'0 0.0
2015-Apr-17 04:30N 37°56' W 008°51'0 0.0
2015-Apr-17 03:33N 37°56' W 008°51'0 0.0
2015-Apr-17 02:30N 37°56' W 008°51'0 0.0
2015-Apr-17 01:33N 37°56' W 008°51'0 0.0
2015-Apr-17 00:33N 37°56' W 008°51'0 0.0
2015-Apr-16 23:33N 37°56' W 008°51'0 0.0
2015-Apr-16 22:33N 37°56' W 008°51'0 0.0
2015-Apr-16 21:33N 37°56' W 008°51'0 0.0
2015-Apr-16 20:33N 37°56' W 008°51'0 0.0
2015-Apr-16 19:33N 37°56' W 008°51'0 0.5
2015-Apr-16 18:33N 37°56' W 008°51'2 2.3
2015-Apr-16 17:33N 37°53' W 008°51'4 3.7
2015-Apr-16 16:33N 37°53' W 008°56'1 0.6
2015-Apr-16 15:33N 37°52' W 008°56'1 0.9
2015-Apr-16 14:33N 37°52' W 008°55'5 4.5
2015-Apr-16 13:33N 37°48' W 008°57'6 5.8
2015-Apr-16 12:33N 37°43' W 008°59'6 5.9
2015-Apr-16 11:33N 37°37' W 009°01'10 9.6
2015-Apr-16 10:33N 37°28' W 009°06'1515.4
2015-Apr-16 09:33N 37°14' W 009°14'1514.5
2015-Apr-16 08:33N 37°01' W 009°21'1514.3
2015-Apr-16 07:32N 36°48' W 009°13'1514.8
2015-Apr-16 06:30N 36°40' W 008°57'1415.0
2015-Apr-16 05:33N 36°36' W 008°40'1514.9
2015-Apr-16 04:34N 36°31' W 008°22'1615.1
2015-Apr-16 03:29N 36°26' W 008°03'12515.0
2015-Apr-15 19:11N 35°59' W 005°32'1015.7
2015-Apr-15 18:33N 36°01' W 005°21'22918.6
2015-Apr-15 06:15N 36°45' W 000°42'3016.4
2015-Apr-15 04:24N 36°53' W 000°05'1517.0
2015-Apr-15 03:30N 36°57' E 000°13'1617.2
2015-Apr-15 02:33N 37°01' E 000°33'1817.3
2015-Apr-15 01:32N 37°06' E 000°54'2317.6
2015-Apr-15 00:13N 37°12' E 001°22'1217.4
2015-Apr-14 23:32N 37°15' E 001°36'1717.7
2015-Apr-14 22:33N 37°19' E 001°58'1717.6
2015-Apr-14 21:33N 37°20' E 002°20'1817.5
2015-Apr-14 20:33N 37°21' E 002°41'1817.7
2015-Apr-14 19:33N 37°23' E 003°04'1817.8
2015-Apr-14 18:33N 37°24' E 003°26'1818.0
2015-Apr-14 17:33N 37°25' E 003°49'1717.5
2015-Apr-14 16:33N 37°26' E 004°11'2017.9
2015-Apr-14 15:26N 37°27' E 004°36'1617.8
2015-Apr-14 14:33N 37°28' E 004°56'1817.6
2015-Apr-14 13:33N 37°29' E 005°18'1817.8
2015-Apr-14 12:33N 37°30' E 005°40'1817.8
2015-Apr-14 11:31N 37°31' E 006°03'2218.3
2015-Apr-14 10:20N 37°32' E 006°31'1518.1
2015-Apr-14 09:30N 37°33' E 006°50'5217.2
2015-Apr-14 06:29N 37°36' E 007°55'16816.9
2015-Apr-13 20:32N 37°22' E 011°26'1817.3
2015-Apr-13 19:31N 37°13' E 011°46'3817.0
2015-Apr-13 17:18N 36°56' E 012°28'1817.1
2015-Apr-13 16:16N 36°51' E 012°49'1717.3
2015-Apr-13 15:17N 36°45' E 013°09'1317.5
2015-Apr-13 14:33N 36°42' E 013°24'1717.5
2015-Apr-13 13:33N 36°36' E 013°45'1717.5
2015-Apr-13 12:33N 36°32' E 014°06'1717.2
2015-Apr-13 11:34N 36°26' E 014°26'1817.5
2015-Apr-13 10:33N 36°20' E 014°47'  
Track history (hours):
 
Tides and Currents Weather Stations Pressure Air Temp Water Temp Dewpoint Dewpoint Depression Visibility Wind Speed Wind Dir Waves Ship Positions

MSC Vega

Last reported at 2015-Apr-19 15:33 UTC. Time now 2015-Apr-19 15:38 UTC.
Position N 49°40' W 000°30'.

Length 366 m; draft 10.9 m.

Type: Ship (hazmat cat A). MMSI: 636015506.

Date/timePositionNaut miles runAvg speedWind from/ knotsBaromVisibWave heightAir tempDewpointWater temp
2015-Apr-19 15:33N 49°40' W 000°30'1515.0
2015-Apr-19 14:34N 49°46' W 000°51'3114.6
2015-Apr-19 12:26N 49°54' W 001°37'1514.0
2015-Apr-19 11:20N 49°54' W 002°01'71618.8
2015-Apr-17 21:20N 39°22' W 009°52'1519.8
2015-Apr-17 20:33N 39°06' W 009°52'2020.0
2015-Apr-17 19:33N 38°46' W 009°52'1919.3
2015-Apr-17 18:33N 38°29' W 009°41'1919.7
2015-Apr-17 17:34N 38°13' W 009°27'1919.2
2015-Apr-17 16:33N 38°00' W 009°08'1514.6
2015-Apr-17 15:33N 37°55' W 008°50'1 0.8
2015-Apr-17 14:33N 37°56' W 008°51'0 0.0
2015-Apr-17 13:30N 37°56' W 008°51'0 0.0
2015-Apr-17 12:33N 37°56' W 008°51'0 0.0
2015-Apr-17 11:33N 37°56' W 008°51'0 0.0
2015-Apr-17 10:33N 37°56' W 008°51'0 0.0
2015-Apr-17 09:30N 37°56' W 008°51'0 0.0
2015-Apr-17 08:33N 37°56' W 008°51'0 0.0
2015-Apr-17 07:33N 37°56' W 008°51'0 0.0
2015-Apr-17 06:33N 37°56' W 008°51'0 0.0
2015-Apr-17 05:30N 37°56' W 008°51'0 0.0
2015-Apr-17 04:30N 37°56' W 008°51'0 0.0
2015-Apr-17 03:33N 37°56' W 008°51'0 0.0
2015-Apr-17 02:30N 37°56' W 008°51'0 0.0
2015-Apr-17 01:33N 37°56' W 008°51'0 0.0
2015-Apr-17 00:33N 37°56' W 008°51'0 0.0
2015-Apr-16 23:33N 37°56' W 008°51'0 0.0
2015-Apr-16 22:33N 37°56' W 008°51'0 0.0
2015-Apr-16 21:33N 37°56' W 008°51'0 0.0
2015-Apr-16 20:33N 37°56' W 008°51'0 0.0
2015-Apr-16 19:33N 37°56' W 008°51'0 0.5
2015-Apr-16 18:33N 37°56' W 008°51'2 2.3
2015-Apr-16 17:33N 37°53' W 008°51'4 3.7
2015-Apr-16 16:33N 37°53' W 008°56'1 0.6
2015-Apr-16 15:33N 37°52' W 008°56'1 0.9
2015-Apr-16 14:33N 37°52' W 008°55'5 4.5
2015-Apr-16 13:33N 37°48' W 008°57'6 5.8
2015-Apr-16 12:33N 37°43' W 008°59'6 5.9
2015-Apr-16 11:33N 37°37' W 009°01'10 9.6
2015-Apr-16 10:33N 37°28' W 009°06'1515.4
2015-Apr-16 09:33N 37°14' W 009°14'1514.5
2015-Apr-16 08:33N 37°01' W 009°21'1514.3
2015-Apr-16 07:32N 36°48' W 009°13'1514.8
2015-Apr-16 06:30N 36°40' W 008°57'1415.0
2015-Apr-16 05:33N 36°36' W 008°40'1514.9
2015-Apr-16 04:34N 36°31' W 008°22'1615.1
2015-Apr-16 03:29N 36°26' W 008°03'12515.0
2015-Apr-15 19:11N 35°59' W 005°32'1015.7
2015-Apr-15 18:33N 36°01' W 005°21'22918.6
2015-Apr-15 06:15N 36°45' W 000°42'3016.4
2015-Apr-15 04:24N 36°53' W 000°05'1517.0
2015-Apr-15 03:30N 36°57' E 000°13'1617.2
2015-Apr-15 02:33N 37°01' E 000°33'1817.3
2015-Apr-15 01:32N 37°06' E 000°54'2317.6
2015-Apr-15 00:13N 37°12' E 001°22'1217.4
2015-Apr-14 23:32N 37°15' E 001°36'1717.7
2015-Apr-14 22:33N 37°19' E 001°58'1717.6
2015-Apr-14 21:33N 37°20' E 002°20'1817.5
2015-Apr-14 20:33N 37°21' E 002°41'1817.7
2015-Apr-14 19:33N 37°23' E 003°04'1817.8
2015-Apr-14 18:33N 37°24' E 003°26'1818.0
2015-Apr-14 17:33N 37°25' E 003°49'1717.5
2015-Apr-14 16:33N 37°26' E 004°11'2017.9
2015-Apr-14 15:26N 37°27' E 004°36'1617.8
2015-Apr-14 14:33N 37°28' E 004°56'1817.6
2015-Apr-14 13:33N 37°29' E 005°18'1817.8
2015-Apr-14 12:33N 37°30' E 005°40'1817.8
2015-Apr-14 11:31N 37°31' E 006°03'2218.3
2015-Apr-14 10:20N 37°32' E 006°31'1518.1
2015-Apr-14 09:30N 37°33' E 006°50'5217.2
2015-Apr-14 06:29N 37°36' E 007°55'16816.9
2015-Apr-13 20:32N 37°22' E 011°26'1817.3
2015-Apr-13 19:31N 37°13' E 011°46'3817.0
2015-Apr-13 17:18N 36°56' E 012°28'1817.1
2015-Apr-13 16:16N 36°51' E 012°49'1717.3
2015-Apr-13 15:17N 36°45' E 013°09'1317.5
2015-Apr-13 14:33N 36°42' E 013°24'1717.5
2015-Apr-13 13:33N 36°36' E 013°45'1717.5
2015-Apr-13 12:33N 36°32' E 014°06'1717.2
2015-Apr-13 11:34N 36°26' E 014°26'1817.5
2015-Apr-13 10:33N 36°20' E 014°47'  

Dump ship's entire track history